»·PEaware :: PSV511 KLAS-KSAN

PSV511 :: KLAS-KSAN

FLIGHT INFORMATION

Flight Status: Arrived
Operator:
Power Set Virtual (website)
More flights by this operator :: More flights under this callsign
Pilot: Craig H. (6968)
Aircraft: AIRBUS A319
(A319)
More flights by this aircraft type
Origin: KLAS McCarran Intl
United States
Destination: KSAN San Diego Intl-Lindbergh
United States
More flights between these airports :: More routes between these airports
Route: +BOACH8 LVELL LUCKI1
File this flight plan on PilotEdge
Remarks: Power VA
Altitude:
(Current/Filed)
34,000ft
Speed:
(Current/Filed)
437kts
Departed: 26-Feb-20 12:09 PM
Arrived: 26-Feb-20 12:50 PM
Distance/Time
Traveled:
225nm/0:41
Distance/Time
To Go:
Arrived

Flight Plot

Page will automatically refresh every two minutes.

Flight plan parsing failed; only flown route is shown


Map Options




Map Legend


Flown Route
Filed Route
Departure Airport
Arrival Airport
Navaid (VOR, NDB)
Fix

Horizontal Profiles

Position Reports

Time Latitude Longitude Heading Altitude Ground
Speed
26-Feb-20 11:44 36.085294 -115.153431 332 2108ft 0kts
26-Feb-20 11:45 36.085294 -115.153431 332 2108ft 0kts
26-Feb-20 11:46 36.085294 -115.153431 332 2108ft 0kts
26-Feb-20 11:47 36.085294 -115.153431 332 2108ft 0kts
26-Feb-20 11:48 36.085294 -115.153431 332 2108ft 0kts
26-Feb-20 11:49 36.085294 -115.153431 332 2108ft 0kts
26-Feb-20 11:50 36.085294 -115.153431 332 2108ft 0kts
26-Feb-20 11:51 36.085294 -115.153431 332 2108ft 0kts
26-Feb-20 11:52 36.085294 -115.153431 332 2108ft 0kts
26-Feb-20 11:53 36.085294 -115.153431 332 2108ft 0kts
26-Feb-20 11:54 36.085294 -115.153431 332 2108ft 0kts
26-Feb-20 11:55 36.085294 -115.153431 332 2108ft 0kts
26-Feb-20 11:56 36.085294 -115.153431 332 2108ft 0kts
26-Feb-20 11:58 36.085294 -115.153431 332 2108ft 0kts
26-Feb-20 11:59 36.085294 -115.153431 332 2108ft 0kts
26-Feb-20 12:00 36.085234 -115.153381 347 2108ft 2kts
26-Feb-20 12:01 36.084681 -115.153105 336 2109ft 2kts
26-Feb-20 12:02 36.084331 -115.152901 270 2109ft 0kts
26-Feb-20 12:03 36.084365 -115.152801 244 2109ft 0kts
26-Feb-20 12:04 36.084354 -115.152830 244 2109ft 0kts
26-Feb-20 12:05 36.083456 -115.155265 244 2119ft 11kts
26-Feb-20 12:06 36.087386 -115.157722 26 2120ft 23kts
26-Feb-20 12:07 36.093724 -115.154112 24 2091ft 28kts
26-Feb-20 12:08 36.098249 -115.153574 252 2080ft 16kts
26-Feb-20 12:09 36.071931 -115.168796 205 2672ft 179kts
26-Feb-20 12:10 36.024391 -115.196071 206 5060ft 218kts
26-Feb-20 12:11 35.986087 -115.267582 243 6945ft 279kts
26-Feb-20 12:12 35.919907 -115.308243 184 9966ft 296kts
26-Feb-20 12:13 35.829111 -115.312050 174 11733ft 367kts
26-Feb-20 12:14 35.718057 -115.299193 174 13584ft 424kts
26-Feb-20 12:15 35.599042 -115.297768 182 16226ft 444kts
26-Feb-20 12:16 35.472654 -115.302763 183 18521ft 464kts
26-Feb-20 12:16 35.363752 -115.307073 183 19496ft 474kts
26-Feb-20 12:18 35.210772 -115.313120 183 19507ft 475kts
26-Feb-20 12:19 35.079164 -115.318276 183 19501ft 473kts
26-Feb-20 12:19 34.970716 -115.322577 183 19472ft 475kts
26-Feb-20 12:21 34.818094 -115.328727 184 19456ft 478kts
26-Feb-20 12:22 34.690424 -115.370042 201 19478ft 478kts
26-Feb-20 12:22 34.586361 -115.415991 201 19494ft 478kts
26-Feb-20 12:23 34.462524 -115.469974 202 21275ft 471kts
26-Feb-20 12:24 34.338745 -115.525369 207 23341ft 480kts
26-Feb-20 12:25 34.222113 -115.604408 212 24488ft 487kts
26-Feb-20 12:26 34.098981 -115.667538 205 24506ft 487kts
26-Feb-20 12:27 33.973980 -115.726667 205 24508ft 488kts
26-Feb-20 12:28 33.847721 -115.787300 206 24498ft 487kts
26-Feb-20 12:29 33.723421 -115.847521 205 24465ft 484kts
26-Feb-20 12:30 33.598456 -115.905708 205 24419ft 482kts
26-Feb-20 12:31 33.489259 -115.986559 241 23145ft 447kts
26-Feb-20 12:32 33.420779 -116.107098 240 21194ft 433kts
26-Feb-20 12:33 33.352693 -116.224009 237 19302ft 424kts
26-Feb-20 12:34 33.254110 -116.299715 206 17082ft 426kts
26-Feb-20 12:35 33.148731 -116.360762 206 14853ft 417kts
26-Feb-20 12:36 33.046556 -116.420318 206 12705ft 400kts
26-Feb-20 12:37 32.959977 -116.490127 221 11018ft 353kts
26-Feb-20 12:38 32.890445 -116.560409 220 9985ft 306kts
26-Feb-20 12:39 32.828661 -116.622377 220 8784ft 287kts
26-Feb-20 12:40 32.770784 -116.685241 235 7424ft 288kts
26-Feb-20 12:41 32.731077 -116.768334 241 5992ft 282kts
26-Feb-20 12:42 32.698289 -116.847371 250 5327ft 266kts
26-Feb-20 12:43 32.690893 -116.929962 275 4143ft 246kts
26-Feb-20 12:44 32.695440 -117.009436 275 2981ft 233kts
26-Feb-20 12:45 32.705914 -117.076072 288 2125ft 169kts
26-Feb-20 12:46 32.717064 -117.121792 287 1038ft 134kts
26-Feb-20 12:47 32.727381 -117.164411 287 366ft 133kts
26-Feb-20 12:48 32.735669 -117.198401 287 19ft 42kts
26-Feb-20 12:49 32.735787 -117.202097 194 19ft 0kts
26-Feb-20 12:50 32.735143 -117.200506 105 19ft 12kts
26-Feb-20 12:51 32.732993 -117.199008 94 19ft 6kts

Navigation Log

Ident Type
Flight plan parsing failed, navigation log unavailable